SUMU/MVD METAR and TAF weather

Enter ICAO airport designator
Station Type Date Time Source
SUMU METAR 2020/09/25 06:00 UTC NOAA

SUMU 250600Z 10003KT CAVOK 11/10 Q1018 NOSIG


Station Type Date Time Source
SUMU Decoded METAR 2020/09/25 06:00 UTC NOAA

Carrasco, Uruguay (SUMU) 34-50S 056-00W 32M
Sep 25, 2020 - 02:00 AM EDT / 2020.09.25 0600 UTC
Wind: from the E (100 degrees) at 3 MPH (3 KT):0
Visibility: greater than 7 mile(s):0
Temperature: 51 F (11 C)
Dew Point: 50 F (10 C)
Relative Humidity: 93%
Pressure (altimeter): 30.06 in. Hg (1018 hPa)
ob: SUMU 250600Z 10003KT CAVOK 11/10 Q1018 NOSIG
cycle: 6

Station Type Date Time Source
SUMU TAF 2020/09/25 06:30 UTC NOAA

TAF SUMU 250530Z 2506/2606 10007KT CAVOK TX22/2518Z TN10/2510Z PROB30
TEMPO 2506/2511 VRB03KT 3000 BR SCT010
TEMPO 2521/2606 7000 RA SCT020 BKN070 PROB30
TEMPO 2521/2603 TS FEW040CB

Example: see airport list